Boncath, United Kingdom
Current Conditions -  °F | °C
As of 2:50 AM on Friday 31 Oct 2014 (Local Time) from EGOP Reporting Station
Scattered Clouds Scattered Clouds  
Wind Chill: 61°   Ceiling: Unl
Heat Index: 61°   Visibility: 4mi
Dew Point: 59°   Wind: 24mph
Humidity: 94%   Direction: 170°S
Pressure: 29.91"   Gusts: NA
Location:  52.02°N, 4.58°W
Report Text: EGOP 310250Z AUTO 17021KT 6000 // FEW018/// SCT028/// 16/15 Q1013
Loading
Personal Weather Stations






























Interactive Weather Map
Tropical Storm Tracking
New forecast layout! Learn more

10-Day Weather Forecast

Advertisements
Track Severe Weather on mobile